sensor_id;sensor_type;location;lat;lon;timestamp;P1;durP1;ratioP1;P2;durP2;ratioP2
36195;SDS011;22237;51.974;4.616;2022-07-17T00:01:01;4.87;;;1.70;;
36195;SDS011;22237;51.974;4.616;2022-07-17T00:03:26;5.07;;;1.88;;
36195;SDS011;22237;51.974;4.616;2022-07-17T00:05:51;7.53;;;2.10;;
36195;SDS011;22237;51.974;4.616;2022-07-17T00:08:17;3.78;;;1.80;;
36195;SDS011;22237;51.974;4.616;2022-07-17T00:10:42;3.35;;;1.60;;
36195;SDS011;22237;51.974;4.616;2022-07-17T00:13:08;1.75;;;1.55;;
36195;SDS011;22237;51.974;4.616;2022-07-17T00:15:33;4.22;;;2.15;;
36195;SDS011;22237;51.974;4.616;2022-07-17T00:17:59;2.55;;;1.63;;
36195;SDS011;22237;51.974;4.616;2022-07-17T00:20:24;8.32;;;2.00;;
36195;SDS011;22237;51.974;4.616;2022-07-17T00:22:50;4.93;;;1.70;;
36195;SDS011;22237;51.974;4.616;2022-07-17T00:25:15;10.43;;;2.22;;
36195;SDS011;22237;51.974;4.616;2022-07-17T00:27:41;3.90;;;2.00;;
36195;SDS011;22237;51.974;4.616;2022-07-17T00:30:07;2.15;;;1.80;;
36195;SDS011;22237;51.974;4.616;2022-07-17T00:32:32;8.45;;;2.03;;
36195;SDS011;22237;51.974;4.616;2022-07-17T00:34:57;5.43;;;1.95;;
36195;SDS011;22237;51.974;4.616;2022-07-17T00:37:23;4.80;;;1.83;;
36195;SDS011;22237;51.974;4.616;2022-07-17T00:39:48;8.60;;;2.70;;
36195;SDS011;22237;51.974;4.616;2022-07-17T00:42:14;3.47;;;2.00;;
36195;SDS011;22237;51.974;4.616;2022-07-17T00:44:39;3.17;;;1.73;;
36195;SDS011;22237;51.974;4.616;2022-07-17T00:49:38;3.72;;;1.80;;
36195;SDS011;22237;51.974;4.616;2022-07-17T00:52:04;6.53;;;2.80;;
36195;SDS011;22237;51.974;4.616;2022-07-17T00:54:29;3.35;;;1.92;;
36195;SDS011;22237;51.974;4.616;2022-07-17T00:56:55;6.68;;;2.28;;
36195;SDS011;22237;51.974;4.616;2022-07-17T00:59:21;4.35;;;1.55;;
36195;SDS011;22237;51.974;4.616;2022-07-17T01:01:47;5.50;;;1.75;;
36195;SDS011;22237;51.974;4.616;2022-07-17T01:04:13;5.97;;;1.70;;
36195;SDS011;22237;51.974;4.616;2022-07-17T01:06:38;2.22;;;1.63;;
36195;SDS011;22237;51.974;4.616;2022-07-17T01:09:03;4.93;;;1.90;;
36195;SDS011;22237;51.974;4.616;2022-07-17T01:11:28;3.10;;;1.80;;
36195;SDS011;22237;51.974;4.616;2022-07-17T01:13:53;5.03;;;1.70;;
36195;SDS011;22237;51.974;4.616;2022-07-17T01:16:19;2.43;;;1.33;;
36195;SDS011;22237;51.974;4.616;2022-07-17T01:18:44;3.73;;;1.77;;
36195;SDS011;22237;51.974;4.616;2022-07-17T01:21:09;4.77;;;2.17;;
36195;SDS011;22237;51.974;4.616;2022-07-17T01:23:34;2.72;;;1.80;;
36195;SDS011;22237;51.974;4.616;2022-07-17T01:25:59;5.00;;;1.97;;
36195;SDS011;22237;51.974;4.616;2022-07-17T01:28:25;2.42;;;1.58;;
36195;SDS011;22237;51.974;4.616;2022-07-17T01:30:51;8.80;;;2.40;;
36195;SDS011;22237;51.974;4.616;2022-07-17T01:33:16;5.25;;;1.90;;
36195;SDS011;22237;51.974;4.616;2022-07-17T01:35:42;4.57;;;1.88;;
36195;SDS011;22237;51.974;4.616;2022-07-17T01:38:07;2.80;;;1.58;;
36195;SDS011;22237;51.974;4.616;2022-07-17T01:40:32;2.67;;;1.52;;
36195;SDS011;22237;51.974;4.616;2022-07-17T01:42:58;6.13;;;1.95;;
36195;SDS011;22237;51.974;4.616;2022-07-17T01:45:23;5.63;;;1.50;;
36195;SDS011;22237;51.974;4.616;2022-07-17T01:47:48;4.13;;;1.83;;
36195;SDS011;22237;51.974;4.616;2022-07-17T01:50:14;3.67;;;1.97;;
36195;SDS011;22237;51.974;4.616;2022-07-17T01:52:40;3.90;;;1.73;;
36195;SDS011;22237;51.974;4.616;2022-07-17T01:55:06;3.45;;;1.85;;
36195;SDS011;22237;51.974;4.616;2022-07-17T01:57:31;2.03;;;1.60;;
36195;SDS011;22237;51.974;4.616;2022-07-17T01:59:56;7.75;;;1.95;;
36195;SDS011;22237;51.974;4.616;2022-07-17T02:02:22;6.47;;;2.00;;
36195;SDS011;22237;51.974;4.616;2022-07-17T02:04:47;1.97;;;1.70;;
36195;SDS011;22237;51.974;4.616;2022-07-17T02:07:12;3.93;;;1.80;;
36195;SDS011;22237;51.974;4.616;2022-07-17T02:09:38;4.32;;;1.90;;
36195;SDS011;22237;51.974;4.616;2022-07-17T02:12:03;5.00;;;1.60;;
36195;SDS011;22237;51.974;4.616;2022-07-17T02:14:29;6.93;;;3.05;;
36195;SDS011;22237;51.974;4.616;2022-07-17T02:16:54;5.53;;;2.30;;
36195;SDS011;22237;51.974;4.616;2022-07-17T02:19:19;4.20;;;1.70;;
36195;SDS011;22237;51.974;4.616;2022-07-17T02:21:45;2.60;;;1.77;;
36195;SDS011;22237;51.974;4.616;2022-07-17T02:24:10;3.70;;;1.83;;
36195;SDS011;22237;51.974;4.616;2022-07-17T02:26:36;3.57;;;1.40;;
36195;SDS011;22237;51.974;4.616;2022-07-17T02:29:01;5.65;;;1.70;;
36195;SDS011;22237;51.974;4.616;2022-07-17T02:31:26;4.18;;;2.13;;
36195;SDS011;22237;51.974;4.616;2022-07-17T02:33:51;1.77;;;1.50;;
36195;SDS011;22237;51.974;4.616;2022-07-17T02:36:17;8.07;;;1.77;;
36195;SDS011;22237;51.974;4.616;2022-07-17T02:38:42;2.13;;;1.93;;
36195;SDS011;22237;51.974;4.616;2022-07-17T02:41:07;5.93;;;1.93;;
36195;SDS011;22237;51.974;4.616;2022-07-17T02:43:32;5.50;;;2.20;;
36195;SDS011;22237;51.974;4.616;2022-07-17T02:45:57;7.55;;;1.77;;
36195;SDS011;22237;51.974;4.616;2022-07-17T02:48:23;4.43;;;2.00;;
36195;SDS011;22237;51.974;4.616;2022-07-17T02:50:48;5.72;;;2.03;;
36195;SDS011;22237;51.974;4.616;2022-07-17T02:53:14;4.18;;;2.40;;
36195;SDS011;22237;51.974;4.616;2022-07-17T02:55:39;4.10;;;1.60;;
36195;SDS011;22237;51.974;4.616;2022-07-17T02:58:04;3.80;;;1.90;;
36195;SDS011;22237;51.974;4.616;2022-07-17T03:00:29;3.20;;;1.90;;
36195;SDS011;22237;51.974;4.616;2022-07-17T03:02:55;6.10;;;2.42;;
36195;SDS011;22237;51.974;4.616;2022-07-17T03:05:20;3.15;;;2.22;;
36195;SDS011;22237;51.974;4.616;2022-07-17T03:07:46;5.43;;;2.28;;
36195;SDS011;22237;51.974;4.616;2022-07-17T03:10:11;4.23;;;1.70;;
36195;SDS011;22237;51.974;4.616;2022-07-17T03:12:36;4.25;;;1.67;;
36195;SDS011;22237;51.974;4.616;2022-07-17T03:15:02;4.67;;;2.07;;
36195;SDS011;22237;51.974;4.616;2022-07-17T03:17:27;3.97;;;1.95;;
36195;SDS011;22237;51.974;4.616;2022-07-17T03:19:53;4.93;;;2.00;;
36195;SDS011;22237;51.974;4.616;2022-07-17T03:22:18;4.30;;;2.17;;
36195;SDS011;22237;51.974;4.616;2022-07-17T03:24:43;8.98;;;1.80;;
36195;SDS011;22237;51.974;4.616;2022-07-17T03:27:08;2.60;;;1.87;;
36195;SDS011;22237;51.974;4.616;2022-07-17T03:29:33;4.53;;;2.37;;
36195;SDS011;22237;51.974;4.616;2022-07-17T03:31:59;7.28;;;2.53;;
36195;SDS011;22237;51.974;4.616;2022-07-17T03:34:24;3.67;;;2.23;;
36195;SDS011;22237;51.974;4.616;2022-07-17T03:36:49;4.47;;;2.25;;
36195;SDS011;22237;51.974;4.616;2022-07-17T03:39:15;2.53;;;1.80;;
36195;SDS011;22237;51.974;4.616;2022-07-17T03:41:40;5.80;;;2.30;;
36195;SDS011;22237;51.974;4.616;2022-07-17T03:44:05;7.53;;;2.00;;
36195;SDS011;22237;51.974;4.616;2022-07-17T03:46:30;4.55;;;1.90;;
36195;SDS011;22237;51.974;4.616;2022-07-17T03:48:56;6.90;;;2.03;;
36195;SDS011;22237;51.974;4.616;2022-07-17T03:51:21;5.47;;;2.47;;
36195;SDS011;22237;51.974;4.616;2022-07-17T03:53:46;4.97;;;1.93;;
36195;SDS011;22237;51.974;4.616;2022-07-17T03:56:11;2.95;;;2.10;;
36195;SDS011;22237;51.974;4.616;2022-07-17T03:58:36;3.77;;;2.47;;
36195;SDS011;22237;51.974;4.616;2022-07-17T04:01:02;2.92;;;2.38;;
36195;SDS011;22237;51.974;4.616;2022-07-17T04:03:27;3.97;;;2.38;;
36195;SDS011;22237;51.974;4.616;2022-07-17T04:05:52;2.60;;;2.17;;
36195;SDS011;22237;51.974;4.616;2022-07-17T04:08:18;5.00;;;2.10;;
36195;SDS011;22237;51.974;4.616;2022-07-17T04:10:43;5.35;;;2.35;;
36195;SDS011;22237;51.974;4.616;2022-07-17T04:13:09;5.53;;;2.47;;
36195;SDS011;22237;51.974;4.616;2022-07-17T04:15:34;4.53;;;2.00;;
36195;SDS011;22237;51.974;4.616;2022-07-17T04:18:18;3.65;;;1.90;;
36195;SDS011;22237;51.974;4.616;2022-07-17T04:20:43;4.10;;;2.30;;
36195;SDS011;22237;51.974;4.616;2022-07-17T04:23:09;3.58;;;2.00;;
36195;SDS011;22237;51.974;4.616;2022-07-17T04:25:34;5.68;;;2.20;;
36195;SDS011;22237;51.974;4.616;2022-07-17T04:27:59;6.72;;;2.67;;
36195;SDS011;22237;51.974;4.616;2022-07-17T04:30:24;3.20;;;1.95;;
36195;SDS011;22237;51.974;4.616;2022-07-17T04:32:50;3.42;;;2.10;;
36195;SDS011;22237;51.974;4.616;2022-07-17T04:35:15;2.63;;;1.63;;
36195;SDS011;22237;51.974;4.616;2022-07-17T04:37:40;5.43;;;1.90;;
36195;SDS011;22237;51.974;4.616;2022-07-17T04:40:06;3.17;;;1.83;;
36195;SDS011;22237;51.974;4.616;2022-07-17T04:42:31;5.57;;;1.90;;
36195;SDS011;22237;51.974;4.616;2022-07-17T04:44:56;3.00;;;1.80;;
36195;SDS011;22237;51.974;4.616;2022-07-17T04:47:21;4.05;;;2.00;;
36195;SDS011;22237;51.974;4.616;2022-07-17T04:49:47;5.53;;;2.20;;
36195;SDS011;22237;51.974;4.616;2022-07-17T04:52:12;2.93;;;1.90;;
36195;SDS011;22237;51.974;4.616;2022-07-17T04:54:37;1.83;;;1.70;;
36195;SDS011;22237;51.974;4.616;2022-07-17T04:57:02;3.83;;;1.73;;
36195;SDS011;22237;51.974;4.616;2022-07-17T04:59:27;1.65;;;1.55;;
36195;SDS011;22237;51.974;4.616;2022-07-17T05:01:53;4.23;;;1.53;;
36195;SDS011;22237;51.974;4.616;2022-07-17T05:04:18;4.67;;;1.87;;
36195;SDS011;22237;51.974;4.616;2022-07-17T05:06:43;3.33;;;1.77;;
36195;SDS011;22237;51.974;4.616;2022-07-17T05:09:09;4.70;;;1.47;;
36195;SDS011;22237;51.974;4.616;2022-07-17T05:11:34;1.53;;;1.43;;
36195;SDS011;22237;51.974;4.616;2022-07-17T05:13:59;2.78;;;1.55;;
36195;SDS011;22237;51.974;4.616;2022-07-17T05:16:24;1.67;;;1.50;;
36195;SDS011;22237;51.974;4.616;2022-07-17T05:18:50;4.07;;;1.60;;
36195;SDS011;22237;51.974;4.616;2022-07-17T05:21:15;3.90;;;1.38;;
36195;SDS011;22237;51.974;4.616;2022-07-17T05:23:40;6.22;;;1.50;;
36195;SDS011;22237;51.974;4.616;2022-07-17T05:26:05;9.37;;;1.83;;
36195;SDS011;22237;51.974;4.616;2022-07-17T05:28:31;6.05;;;1.38;;
36195;SDS011;22237;51.974;4.616;2022-07-17T05:30:56;1.75;;;1.30;;
36195;SDS011;22237;51.974;4.616;2022-07-17T05:33:21;1.97;;;1.40;;
36195;SDS011;22237;51.974;4.616;2022-07-17T05:35:46;2.53;;;1.47;;
36195;SDS011;22237;51.974;4.616;2022-07-17T05:38:12;4.43;;;1.30;;
36195;SDS011;22237;51.974;4.616;2022-07-17T05:40:37;3.55;;;1.75;;
36195;SDS011;22237;51.974;4.616;2022-07-17T05:43:02;6.23;;;1.63;;
36195;SDS011;22237;51.974;4.616;2022-07-17T05:45:27;3.27;;;1.30;;
36195;SDS011;22237;51.974;4.616;2022-07-17T05:47:52;11.60;;;1.70;;
36195;SDS011;22237;51.974;4.616;2022-07-17T05:50:18;4.53;;;1.23;;
36195;SDS011;22237;51.974;4.616;2022-07-17T05:52:43;4.82;;;1.30;;
36195;SDS011;22237;51.974;4.616;2022-07-17T05:55:08;4.03;;;1.23;;
36195;SDS011;22237;51.974;4.616;2022-07-17T05:57:34;2.78;;;1.40;;
36195;SDS011;22237;51.974;4.616;2022-07-17T05:59:59;5.00;;;1.55;;
36195;SDS011;22237;51.974;4.616;2022-07-17T06:02:24;2.97;;;1.45;;
36195;SDS011;22237;51.974;4.616;2022-07-17T06:04:50;6.45;;;2.05;;
36195;SDS011;22237;51.974;4.616;2022-07-17T06:07:15;2.07;;;1.03;;
36195;SDS011;22237;51.974;4.616;2022-07-17T06:09:40;4.10;;;1.15;;
36195;SDS011;22237;51.974;4.616;2022-07-17T06:12:05;4.10;;;1.53;;
36195;SDS011;22237;51.974;4.616;2022-07-17T06:14:31;2.17;;;1.33;;
36195;SDS011;22237;51.974;4.616;2022-07-17T06:16:56;4.63;;;1.27;;
36195;SDS011;22237;51.974;4.616;2022-07-17T06:19:21;1.63;;;1.17;;
36195;SDS011;22237;51.974;4.616;2022-07-17T06:21:46;2.60;;;1.20;;
36195;SDS011;22237;51.974;4.616;2022-07-17T06:24:11;4.13;;;1.17;;
36195;SDS011;22237;51.974;4.616;2022-07-17T06:26:37;4.77;;;1.10;;
36195;SDS011;22237;51.974;4.616;2022-07-17T06:29:02;5.40;;;1.40;;
36195;SDS011;22237;51.974;4.616;2022-07-17T06:31:27;6.10;;;1.73;;
36195;SDS011;22237;51.974;4.616;2022-07-17T06:33:52;3.27;;;1.17;;
36195;SDS011;22237;51.974;4.616;2022-07-17T06:36:17;4.20;;;1.20;;
36195;SDS011;22237;51.974;4.616;2022-07-17T06:38:43;3.58;;;1.38;;
36195;SDS011;22237;51.974;4.616;2022-07-17T06:41:08;5.10;;;1.10;;
36195;SDS011;22237;51.974;4.616;2022-07-17T06:43:33;6.40;;;1.63;;
36195;SDS011;22237;51.974;4.616;2022-07-17T06:45:58;0.83;;;0.83;;
36195;SDS011;22237;51.974;4.616;2022-07-17T06:48:24;4.93;;;1.20;;
36195;SDS011;22237;51.974;4.616;2022-07-17T06:50:49;7.30;;;1.10;;
36195;SDS011;22237;51.974;4.616;2022-07-17T06:53:14;3.47;;;1.20;;
36195;SDS011;22237;51.974;4.616;2022-07-17T06:55:40;2.17;;;1.00;;
36195;SDS011;22237;51.974;4.616;2022-07-17T06:58:05;6.72;;;1.25;;
36195;SDS011;22237;51.974;4.616;2022-07-17T07:00:30;2.55;;;1.30;;
36195;SDS011;22237;51.974;4.616;2022-07-17T07:02:55;2.30;;;0.70;;
36195;SDS011;22237;51.974;4.616;2022-07-17T07:05:21;1.05;;;0.73;;
36195;SDS011;22237;51.974;4.616;2022-07-17T07:07:46;1.48;;;0.68;;
36195;SDS011;22237;51.974;4.616;2022-07-17T07:10:11;1.25;;;0.68;;
36195;SDS011;22237;51.974;4.616;2022-07-17T07:12:37;2.83;;;1.00;;
36195;SDS011;22237;51.974;4.616;2022-07-17T07:15:02;2.50;;;0.90;;
36195;SDS011;22237;51.974;4.616;2022-07-17T07:17:28;3.65;;;0.85;;
36195;SDS011;22237;51.974;4.616;2022-07-17T07:19:53;2.87;;;0.57;;
36195;SDS011;22237;51.974;4.616;2022-07-17T07:22:18;1.73;;;0.83;;
36195;SDS011;22237;51.974;4.616;2022-07-17T07:24:43;3.00;;;0.90;;
36195;SDS011;22237;51.974;4.616;2022-07-17T07:27:08;4.80;;;1.37;;
36195;SDS011;22237;51.974;4.616;2022-07-17T07:29:33;2.37;;;0.87;;
36195;SDS011;22237;51.974;4.616;2022-07-17T07:31:59;6.70;;;0.70;;
36195;SDS011;22237;51.974;4.616;2022-07-17T07:34:24;3.30;;;0.73;;
36195;SDS011;22237;51.974;4.616;2022-07-17T07:36:50;1.95;;;0.68;;
36195;SDS011;22237;51.974;4.616;2022-07-17T07:39:15;1.20;;;0.50;;
36195;SDS011;22237;51.974;4.616;2022-07-17T07:41:40;2.47;;;0.73;;
36195;SDS011;22237;51.974;4.616;2022-07-17T07:44:06;2.70;;;0.70;;
36195;SDS011;22237;51.974;4.616;2022-07-17T07:46:32;9.43;;;0.95;;
36195;SDS011;22237;51.974;4.616;2022-07-17T07:48:57;9.90;;;0.82;;
36195;SDS011;22237;51.974;4.616;2022-07-17T07:51:22;3.83;;;0.50;;
36195;SDS011;22237;51.974;4.616;2022-07-17T07:53:48;3.83;;;0.95;;
36195;SDS011;22237;51.974;4.616;2022-07-17T07:56:13;2.00;;;0.90;;
36195;SDS011;22237;51.974;4.616;2022-07-17T07:58:38;2.15;;;0.80;;
36195;SDS011;22237;51.974;4.616;2022-07-17T08:01:03;4.63;;;0.80;;
36195;SDS011;22237;51.974;4.616;2022-07-17T08:03:29;5.30;;;1.10;;
36195;SDS011;22237;51.974;4.616;2022-07-17T08:05:54;6.93;;;1.33;;
36195;SDS011;22237;51.974;4.616;2022-07-17T08:08:19;2.87;;;0.83;;
36195;SDS011;22237;51.974;4.616;2022-07-17T08:10:44;5.70;;;0.80;;
36195;SDS011;22237;51.974;4.616;2022-07-17T08:13:09;1.10;;;0.90;;
36195;SDS011;22237;51.974;4.616;2022-07-17T08:15:35;4.47;;;0.93;;
36195;SDS011;22237;51.974;4.616;2022-07-17T08:18:01;2.05;;;0.70;;
36195;SDS011;22237;51.974;4.616;2022-07-17T08:20:26;3.65;;;1.20;;
36195;SDS011;22237;51.974;4.616;2022-07-17T08:22:52;1.10;;;0.63;;
36195;SDS011;22237;51.974;4.616;2022-07-17T08:25:17;2.83;;;0.90;;
36195;SDS011;22237;51.974;4.616;2022-07-17T08:27:43;4.03;;;0.80;;
36195;SDS011;22237;51.974;4.616;2022-07-17T08:30:09;1.80;;;0.88;;
36195;SDS011;22237;51.974;4.616;2022-07-17T08:32:35;4.15;;;1.10;;
36195;SDS011;22237;51.974;4.616;2022-07-17T08:35:00;2.28;;;0.80;;
36195;SDS011;22237;51.974;4.616;2022-07-17T08:37:26;2.67;;;1.00;;
36195;SDS011;22237;51.974;4.616;2022-07-17T08:39:51;3.90;;;0.90;;
36195;SDS011;22237;51.974;4.616;2022-07-17T08:42:17;3.72;;;0.80;;
36195;SDS011;22237;51.974;4.616;2022-07-17T08:44:42;9.98;;;1.02;;
36195;SDS011;22237;51.974;4.616;2022-07-17T08:47:08;2.85;;;0.60;;
36195;SDS011;22237;51.974;4.616;2022-07-17T08:49:33;3.00;;;0.98;;
36195;SDS011;22237;51.974;4.616;2022-07-17T08:52:02;7.00;;;0.75;;
36195;SDS011;22237;51.974;4.616;2022-07-17T08:54:28;2.35;;;0.70;;
36195;SDS011;22237;51.974;4.616;2022-07-17T08:56:53;1.80;;;1.10;;
36195;SDS011;22237;51.974;4.616;2022-07-17T08:59:18;3.70;;;1.03;;
36195;SDS011;22237;51.974;4.616;2022-07-17T09:01:43;3.73;;;1.40;;
36195;SDS011;22237;51.974;4.616;2022-07-17T09:04:09;6.87;;;1.10;;
36195;SDS011;22237;51.974;4.616;2022-07-17T09:06:37;1.48;;;0.70;;
36195;SDS011;22237;51.974;4.616;2022-07-17T09:09:07;3.72;;;0.90;;
36195;SDS011;22237;51.974;4.616;2022-07-17T09:11:49;2.67;;;0.80;;
36195;SDS011;22237;51.974;4.616;2022-07-17T09:14:15;2.17;;;0.77;;
36195;SDS011;22237;51.974;4.616;2022-07-17T09:16:48;3.00;;;0.85;;
36195;SDS011;22237;51.974;4.616;2022-07-17T09:19:23;2.60;;;0.70;;
36195;SDS011;22237;51.974;4.616;2022-07-17T09:21:48;2.03;;;0.85;;
36195;SDS011;22237;51.974;4.616;2022-07-17T09:24:15;2.28;;;0.70;;
36195;SDS011;22237;51.974;4.616;2022-07-17T09:26:43;0.33;;;0.30;;
36195;SDS011;22237;51.974;4.616;2022-07-17T09:29:09;2.08;;;0.88;;
36195;SDS011;22237;51.974;4.616;2022-07-17T09:31:36;2.85;;;0.70;;
36195;SDS011;22237;51.974;4.616;2022-07-17T09:34:02;1.80;;;0.70;;
36195;SDS011;22237;51.974;4.616;2022-07-17T09:36:27;1.03;;;0.80;;
36195;SDS011;22237;51.974;4.616;2022-07-17T09:38:53;0.63;;;0.63;;
36195;SDS011;22237;51.974;4.616;2022-07-17T09:41:19;1.90;;;0.70;;
36195;SDS011;22237;51.974;4.616;2022-07-17T09:43:52;1.90;;;0.88;;
36195;SDS011;22237;51.974;4.616;2022-07-17T09:46:19;1.77;;;0.90;;
36195;SDS011;22237;51.974;4.616;2022-07-17T09:48:46;2.58;;;0.80;;
36195;SDS011;22237;51.974;4.616;2022-07-17T09:51:23;2.47;;;1.13;;
36195;SDS011;22237;51.974;4.616;2022-07-17T09:53:50;1.33;;;0.70;;
36195;SDS011;22237;51.974;4.616;2022-07-17T09:56:16;1.80;;;0.85;;
36195;SDS011;22237;51.974;4.616;2022-07-17T09:58:47;1.70;;;0.77;;
36195;SDS011;22237;51.974;4.616;2022-07-17T10:01:13;2.65;;;0.95;;
36195;SDS011;22237;51.974;4.616;2022-07-17T10:03:40;2.13;;;0.85;;
36195;SDS011;22237;51.974;4.616;2022-07-17T10:06:05;1.80;;;0.90;;
36195;SDS011;22237;51.974;4.616;2022-07-17T10:08:30;1.02;;;0.70;;
36195;SDS011;22237;51.974;4.616;2022-07-17T10:10:56;1.52;;;0.98;;
36195;SDS011;22237;51.974;4.616;2022-07-17T10:13:21;0.77;;;0.77;;
36195;SDS011;22237;51.974;4.616;2022-07-17T10:15:46;1.67;;;0.80;;
36195;SDS011;22237;51.974;4.616;2022-07-17T10:18:12;0.93;;;0.70;;
36195;SDS011;22237;51.974;4.616;2022-07-17T10:20:37;1.43;;;0.87;;
36195;SDS011;22237;51.974;4.616;2022-07-17T10:23:14;3.60;;;0.90;;
36195;SDS011;22237;51.974;4.616;2022-07-17T10:25:40;0.70;;;0.70;;
36195;SDS011;22237;51.974;4.616;2022-07-17T10:28:05;4.05;;;0.80;;
36195;SDS011;22237;51.974;4.616;2022-07-17T10:30:32;2.45;;;0.52;;
36195;SDS011;22237;51.974;4.616;2022-07-17T10:32:59;0.95;;;0.68;;
36195;SDS011;22237;51.974;4.616;2022-07-17T10:35:25;1.30;;;0.85;;
36195;SDS011;22237;51.974;4.616;2022-07-17T10:37:51;1.98;;;1.00;;
36195;SDS011;22237;51.974;4.616;2022-07-17T10:42:52;0.87;;;0.70;;
36195;SDS011;22237;51.974;4.616;2022-07-17T10:51:02;2.67;;;0.63;;
36195;SDS011;22237;51.974;4.616;2022-07-17T10:53:30;1.98;;;0.73;;
36195;SDS011;22237;51.974;4.616;2022-07-17T10:56:00;1.52;;;0.65;;
36195;SDS011;22237;51.974;4.616;2022-07-17T10:58:30;0.82;;;0.70;;
36195;SDS011;22237;51.974;4.616;2022-07-17T11:03:22;6.37;;;0.80;;
36195;SDS011;22237;51.974;4.616;2022-07-17T11:05:47;2.27;;;0.87;;
36195;SDS011;22237;51.974;4.616;2022-07-17T11:08:13;8.32;;;1.10;;
36195;SDS011;22237;51.974;4.616;2022-07-17T11:10:39;3.33;;;1.20;;
36195;SDS011;22237;51.974;4.616;2022-07-17T11:13:11;1.42;;;0.90;;
36195;SDS011;22237;51.974;4.616;2022-07-17T11:15:38;1.08;;;0.98;;
36195;SDS011;22237;51.974;4.616;2022-07-17T11:18:03;2.45;;;0.80;;
36195;SDS011;22237;51.974;4.616;2022-07-17T11:20:28;1.60;;;0.83;;
36195;SDS011;22237;51.974;4.616;2022-07-17T11:22:57;1.15;;;0.88;;
36195;SDS011;22237;51.974;4.616;2022-07-17T11:25:23;5.28;;;1.10;;
36195;SDS011;22237;51.974;4.616;2022-07-17T11:27:48;11.40;;;1.00;;
36195;SDS011;22237;51.974;4.616;2022-07-17T11:30:13;1.77;;;0.80;;
36195;SDS011;22237;51.974;4.616;2022-07-17T11:32:39;2.30;;;1.00;;
36195;SDS011;22237;51.974;4.616;2022-07-17T11:35:17;2.97;;;1.17;;
36195;SDS011;22237;51.974;4.616;2022-07-17T11:37:43;1.83;;;0.90;;
36195;SDS011;22237;51.974;4.616;2022-07-17T11:40:08;1.42;;;0.63;;
36195;SDS011;22237;51.974;4.616;2022-07-17T11:42:34;3.85;;;1.38;;
36195;SDS011;22237;51.974;4.616;2022-07-17T11:44:59;1.88;;;1.02;;
36195;SDS011;22237;51.974;4.616;2022-07-17T11:47:25;2.63;;;1.10;;
36195;SDS011;22237;51.974;4.616;2022-07-17T11:50:03;2.08;;;1.13;;
36195;SDS011;22237;51.974;4.616;2022-07-17T11:52:38;1.40;;;0.80;;
36195;SDS011;22237;51.974;4.616;2022-07-17T11:55:04;1.35;;;0.60;;
36195;SDS011;22237;51.974;4.616;2022-07-17T11:57:29;1.70;;;1.00;;
36195;SDS011;22237;51.974;4.616;2022-07-17T12:00:06;2.80;;;1.13;;
36195;SDS011;22237;51.974;4.616;2022-07-17T12:02:32;2.13;;;1.00;;
36195;SDS011;22237;51.974;4.616;2022-07-17T12:04:58;1.20;;;0.97;;
36195;SDS011;22237;51.974;4.616;2022-07-17T12:07:24;0.77;;;0.77;;
36195;SDS011;22237;51.974;4.616;2022-07-17T12:09:49;3.95;;;1.35;;
36195;SDS011;22237;51.974;4.616;2022-07-17T12:12:18;2.58;;;1.27;;
36195;SDS011;22237;51.974;4.616;2022-07-17T12:14:54;2.08;;;1.05;;
36195;SDS011;22237;51.974;4.616;2022-07-17T12:17:19;3.97;;;0.90;;
36195;SDS011;22237;51.974;4.616;2022-07-17T12:19:45;2.30;;;1.17;;
36195;SDS011;22237;51.974;4.616;2022-07-17T12:22:10;2.20;;;0.85;;
36195;SDS011;22237;51.974;4.616;2022-07-17T12:24:37;1.30;;;0.80;;
36195;SDS011;22237;51.974;4.616;2022-07-17T12:27:03;2.38;;;1.00;;
36195;SDS011;22237;51.974;4.616;2022-07-17T12:29:29;4.13;;;1.35;;
36195;SDS011;22237;51.974;4.616;2022-07-17T12:34:26;3.40;;;0.80;;
36195;SDS011;22237;51.974;4.616;2022-07-17T12:36:51;6.33;;;1.90;;
36195;SDS011;22237;51.974;4.616;2022-07-17T12:39:16;1.30;;;1.00;;
36195;SDS011;22237;51.974;4.616;2022-07-17T12:41:41;4.70;;;1.40;;
36195;SDS011;22237;51.974;4.616;2022-07-17T12:44:07;3.92;;;1.20;;
36195;SDS011;22237;51.974;4.616;2022-07-17T12:46:32;3.10;;;1.00;;
36195;SDS011;22237;51.974;4.616;2022-07-17T12:48:57;5.57;;;1.30;;
36195;SDS011;22237;51.974;4.616;2022-07-17T12:51:22;2.83;;;1.30;;
36195;SDS011;22237;51.974;4.616;2022-07-17T12:53:48;1.65;;;1.10;;
36195;SDS011;22237;51.974;4.616;2022-07-17T12:56:14;2.90;;;1.17;;
36195;SDS011;22237;51.974;4.616;2022-07-17T12:58:39;3.77;;;1.80;;
36195;SDS011;22237;51.974;4.616;2022-07-17T13:01:04;3.17;;;1.20;;
36195;SDS011;22237;51.974;4.616;2022-07-17T13:03:31;2.25;;;1.42;;
36195;SDS011;22237;51.974;4.616;2022-07-17T13:05:56;1.38;;;1.15;;
36195;SDS011;22237;51.974;4.616;2022-07-17T13:08:21;1.43;;;1.00;;
36195;SDS011;22237;51.974;4.616;2022-07-17T13:10:46;2.67;;;1.47;;
36195;SDS011;22237;51.974;4.616;2022-07-17T13:13:12;2.97;;;1.10;;
36195;SDS011;22237;51.974;4.616;2022-07-17T13:15:37;3.50;;;1.10;;
36195;SDS011;22237;51.974;4.616;2022-07-17T13:18:02;2.78;;;1.15;;
36195;SDS011;22237;51.974;4.616;2022-07-17T13:20:28;2.63;;;1.60;;
36195;SDS011;22237;51.974;4.616;2022-07-17T13:22:53;4.22;;;1.60;;
36195;SDS011;22237;51.974;4.616;2022-07-17T13:25:18;5.70;;;1.37;;
36195;SDS011;22237;51.974;4.616;2022-07-17T13:27:43;1.70;;;1.33;;
36195;SDS011;22237;51.974;4.616;2022-07-17T13:30:10;3.67;;;1.58;;
36195;SDS011;22237;51.974;4.616;2022-07-17T13:32:35;2.67;;;1.42;;
36195;SDS011;22237;51.974;4.616;2022-07-17T13:35:00;1.73;;;1.27;;
36195;SDS011;22237;51.974;4.616;2022-07-17T13:37:25;2.13;;;1.37;;
36195;SDS011;22237;51.974;4.616;2022-07-17T13:39:51;1.73;;;1.30;;
36195;SDS011;22237;51.974;4.616;2022-07-17T13:42:16;4.57;;;1.77;;
36195;SDS011;22237;51.974;4.616;2022-07-17T13:44:41;3.72;;;1.55;;
36195;SDS011;22237;51.974;4.616;2022-07-17T13:47:07;2.87;;;1.93;;
36195;SDS011;22237;51.974;4.616;2022-07-17T13:49:32;2.22;;;1.58;;
36195;SDS011;22237;51.974;4.616;2022-07-17T13:51:57;3.97;;;1.73;;
36195;SDS011;22237;51.974;4.616;2022-07-17T13:54:22;4.20;;;1.70;;
36195;SDS011;22237;51.974;4.616;2022-07-17T13:56:48;2.28;;;1.42;;
36195;SDS011;22237;51.974;4.616;2022-07-17T13:59:13;2.67;;;1.70;;
36195;SDS011;22237;51.974;4.616;2022-07-17T14:01:38;3.83;;;2.07;;
36195;SDS011;22237;51.974;4.616;2022-07-17T14:04:03;2.27;;;1.60;;
36195;SDS011;22237;51.974;4.616;2022-07-17T14:06:29;2.67;;;1.45;;
36195;SDS011;22237;51.974;4.616;2022-07-17T14:08:54;3.13;;;1.70;;
36195;SDS011;22237;51.974;4.616;2022-07-17T14:11:19;2.33;;;1.70;;
36195;SDS011;22237;51.974;4.616;2022-07-17T14:13:45;2.42;;;1.75;;
36195;SDS011;22237;51.974;4.616;2022-07-17T14:16:10;2.93;;;1.87;;
36195;SDS011;22237;51.974;4.616;2022-07-17T14:18:35;7.23;;;2.30;;
36195;SDS011;22237;51.974;4.616;2022-07-17T14:21:00;6.93;;;2.43;;
36195;SDS011;22237;51.974;4.616;2022-07-17T14:23:26;4.10;;;2.10;;
36195;SDS011;22237;51.974;4.616;2022-07-17T14:25:51;3.97;;;2.30;;
36195;SDS011;22237;51.974;4.616;2022-07-17T14:28:16;5.67;;;3.30;;
36195;SDS011;22237;51.974;4.616;2022-07-17T14:30:42;2.67;;;2.05;;
36195;SDS011;22237;51.974;4.616;2022-07-17T14:33:07;4.93;;;2.17;;
36195;SDS011;22237;51.974;4.616;2022-07-17T14:35:32;2.60;;;1.90;;
36195;SDS011;22237;51.974;4.616;2022-07-17T14:37:58;3.90;;;2.35;;
36195;SDS011;22237;51.974;4.616;2022-07-17T14:40:23;3.60;;;2.20;;
36195;SDS011;22237;51.974;4.616;2022-07-17T14:42:49;4.20;;;2.35;;
36195;SDS011;22237;51.974;4.616;2022-07-17T14:45:14;4.40;;;2.30;;
36195;SDS011;22237;51.974;4.616;2022-07-17T14:47:39;5.72;;;2.38;;
36195;SDS011;22237;51.974;4.616;2022-07-17T14:50:05;4.63;;;2.23;;
36195;SDS011;22237;51.974;4.616;2022-07-17T14:52:31;6.40;;;2.80;;
36195;SDS011;22237;51.974;4.616;2022-07-17T14:54:56;5.40;;;2.50;;